createdAt,value
2017-09-06T00:00:59.676Z,11.13
2017-09-06T00:03:27.761Z,10.30
2017-09-06T00:05:55.848Z,10.87
2017-09-06T00:08:23.938Z,10.17
2017-09-06T00:10:52.032Z,10.27
2017-09-06T00:13:20.212Z,10.13
2017-09-06T00:15:48.300Z,10.90
2017-09-06T00:18:16.379Z,9.70
2017-09-06T00:20:44.476Z,10.13
2017-09-06T00:23:12.550Z,9.90
2017-09-06T00:25:40.642Z,10.67
2017-09-06T00:28:08.763Z,11.20
2017-09-06T00:30:36.828Z,11.57
2017-09-06T00:33:04.909Z,12.70
2017-09-06T00:35:32.992Z,15.00
2017-09-06T00:38:01.081Z,10.60
2017-09-06T00:40:29.161Z,10.93
2017-09-06T00:42:57.262Z,11.03
2017-09-06T00:45:25.480Z,10.67
2017-09-06T00:47:53.564Z,10.90
2017-09-06T00:50:21.651Z,10.53
2017-09-06T00:52:49.750Z,12.43
2017-09-06T00:55:17.832Z,12.00
2017-09-06T00:57:45.921Z,10.90
2017-09-06T01:00:14.003Z,10.50
2017-09-06T01:02:42.097Z,11.03
2017-09-06T01:05:10.173Z,10.17
2017-09-06T01:07:38.257Z,9.67
2017-09-06T01:10:06.329Z,10.90
2017-09-06T01:12:34.415Z,10.73
2017-09-06T01:15:02.498Z,14.73
2017-09-06T01:17:30.573Z,10.80
2017-09-06T01:19:58.760Z,11.20
2017-09-06T01:22:26.881Z,10.23
2017-09-06T01:24:54.965Z,10.83
2017-09-06T01:27:23.053Z,10.87
2017-09-06T01:29:51.150Z,11.10
2017-09-06T01:32:19.237Z,12.13
2017-09-06T01:34:47.312Z,10.07
2017-09-06T01:37:15.460Z,14.47
2017-09-06T01:39:43.544Z,10.80
2017-09-06T01:42:11.620Z,12.20
2017-09-06T01:44:39.706Z,10.90
2017-09-06T01:47:07.792Z,10.53
2017-09-06T01:49:35.880Z,11.03
2017-09-06T01:52:03.965Z,9.97
2017-09-06T01:54:32.047Z,11.70
2017-09-06T01:57:00.137Z,11.47
2017-09-06T01:59:28.207Z,10.30
2017-09-06T02:01:56.297Z,11.03
2017-09-06T02:04:24.368Z,10.77
2017-09-06T02:06:52.459Z,11.43
2017-09-06T02:09:20.541Z,11.07
2017-09-06T02:11:48.641Z,10.27
2017-09-06T02:14:16.720Z,10.73
2017-09-06T02:16:44.808Z,13.37
2017-09-06T02:19:12.892Z,11.90
2017-09-06T02:21:40.972Z,10.83
2017-09-06T02:24:09.050Z,12.40
2017-09-06T02:26:37.171Z,13.33
2017-09-06T02:29:05.256Z,12.03
2017-09-06T02:31:33.333Z,11.60
2017-09-06T02:34:01.428Z,11.53
2017-09-06T02:36:29.504Z,12.43
2017-09-06T02:38:57.584Z,10.63
2017-09-06T02:41:25.668Z,11.27
2017-09-06T02:43:53.766Z,10.70
2017-09-06T02:46:21.851Z,10.10
2017-09-06T02:48:49.938Z,9.53
2017-09-06T02:51:18.007Z,8.23
2017-09-06T02:53:46.088Z,9.03
2017-09-06T02:56:14.162Z,9.00
2017-09-06T02:58:42.244Z,10.10
2017-09-06T03:01:10.313Z,8.63
2017-09-06T03:03:38.399Z,10.30
2017-09-06T03:06:06.477Z,9.00
2017-09-06T03:08:34.560Z,10.00
2017-09-06T03:11:02.658Z,10.00
2017-09-06T03:13:30.737Z,10.73
2017-09-06T03:15:59.233Z,9.33
2017-09-06T03:18:27.305Z,9.07
2017-09-06T03:20:55.404Z,8.53
2017-09-06T03:23:23.490Z,8.97
2017-09-06T03:25:51.579Z,9.80
2017-09-06T03:28:19.648Z,8.83
2017-09-06T03:30:47.735Z,9.47
2017-09-06T03:33:15.804Z,8.50
2017-09-06T03:35:43.888Z,8.87
2017-09-06T03:38:11.966Z,10.70
2017-09-06T03:40:40.061Z,10.33
2017-09-06T03:43:08.132Z,11.17
2017-09-06T03:45:36.232Z,15.73
2017-09-06T03:48:04.317Z,10.90
2017-09-06T03:50:32.399Z,14.13
2017-09-06T03:53:00.476Z,11.27
2017-09-06T03:55:28.548Z,11.00
2017-09-06T03:57:56.641Z,11.10
2017-09-06T04:00:24.729Z,10.40
2017-09-06T04:02:52.903Z,11.63
2017-09-06T04:05:21.057Z,11.30
2017-09-06T04:07:49.147Z,10.60
2017-09-06T04:10:17.243Z,12.90
2017-09-06T04:12:45.360Z,10.90
2017-09-06T04:15:13.437Z,11.37
2017-09-06T04:17:41.519Z,11.67
2017-09-06T04:20:09.612Z,10.63
2017-09-06T04:22:37.705Z,10.87
2017-09-06T04:25:05.781Z,11.00
2017-09-06T04:27:33.875Z,10.53
2017-09-06T04:30:01.956Z,12.80
2017-09-06T04:32:30.055Z,11.40
2017-09-06T04:34:58.132Z,10.53
2017-09-06T04:37:26.295Z,14.30
2017-09-06T04:39:54.394Z,12.20
2017-09-06T04:42:22.484Z,11.63
2017-09-06T04:44:50.577Z,10.97
2017-09-06T04:47:18.648Z,12.90
2017-09-06T04:49:46.732Z,11.00
2017-09-06T04:52:14.808Z,14.00
2017-09-06T04:54:42.896Z,13.77
2017-09-06T04:57:10.975Z,11.73
2017-09-06T04:59:39.083Z,11.43
2017-09-06T05:02:07.169Z,13.03
2017-09-06T05:04:35.301Z,14.27
2017-09-06T05:07:03.426Z,18.73
2017-09-06T05:09:31.545Z,15.80
2017-09-06T05:11:59.620Z,12.47
2017-09-06T05:14:27.709Z,11.73
2017-09-06T05:16:55.789Z,12.07
2017-09-06T05:19:23.904Z,12.40
2017-09-06T05:21:52.038Z,13.53
2017-09-06T05:24:20.173Z,13.93
2017-09-06T05:26:48.261Z,12.60
2017-09-06T05:29:16.343Z,15.23
2017-09-06T05:31:44.431Z,14.53
2017-09-06T05:34:12.508Z,11.53
2017-09-06T05:36:40.608Z,12.23
2017-09-06T05:39:08.900Z,11.87
2017-09-06T05:41:36.984Z,15.03
2017-09-06T05:44:05.056Z,14.83
2017-09-06T05:46:33.144Z,10.50
2017-09-06T05:49:01.214Z,10.40
2017-09-06T05:51:29.296Z,11.20
2017-09-06T05:53:57.364Z,10.83
2017-09-06T05:56:25.462Z,15.97
2017-09-06T05:58:53.548Z,13.17
2017-09-06T06:01:21.638Z,12.60
2017-09-06T06:03:49.715Z,8.93
2017-09-06T06:06:17.801Z,8.63
2017-09-06T06:08:45.872Z,10.77
2017-09-06T06:11:13.947Z,8.40
2017-09-06T06:13:42.015Z,7.47
2017-09-06T06:16:10.080Z,6.73
2017-09-06T06:18:38.166Z,9.13
2017-09-06T06:21:06.250Z,7.47
2017-09-06T06:23:34.328Z,6.30
2017-09-06T06:26:02.396Z,7.03
2017-09-06T06:28:30.479Z,5.80
2017-09-06T06:30:58.543Z,6.13
2017-09-06T06:33:26.647Z,6.27
2017-09-06T06:35:54.737Z,5.60
2017-09-06T06:38:22.821Z,6.37
2017-09-06T06:40:50.898Z,6.60
2017-09-06T06:43:18.989Z,5.60
2017-09-06T06:45:47.064Z,5.53
2017-09-06T06:48:15.162Z,7.70
2017-09-06T06:50:43.249Z,5.57
2017-09-06T06:53:11.325Z,5.90
2017-09-06T06:55:39.411Z,5.73
2017-09-06T06:58:07.485Z,5.60
2017-09-06T07:00:35.567Z,5.53
2017-09-06T07:03:03.660Z,5.30
2017-09-06T07:05:31.747Z,7.93
2017-09-06T07:07:59.832Z,4.50
2017-09-06T07:10:27.921Z,4.60
2017-09-06T07:12:56.002Z,4.40
2017-09-06T07:15:24.094Z,3.90
2017-09-06T07:17:52.189Z,5.80
2017-09-06T07:20:20.276Z,4.20
2017-09-06T07:22:48.357Z,3.87
2017-09-06T07:25:16.436Z,3.60
2017-09-06T07:27:44.517Z,3.90
2017-09-06T07:30:12.617Z,4.07
2017-09-06T07:32:40.717Z,4.57
2017-09-06T07:35:08.792Z,5.20
2017-09-06T07:37:36.884Z,6.90
2017-09-06T07:40:04.964Z,3.83
2017-09-06T07:42:33.039Z,3.83
2017-09-06T07:45:01.128Z,3.60
2017-09-06T07:47:29.219Z,3.43
2017-09-06T07:49:57.298Z,3.17
2017-09-06T07:52:25.388Z,2.60
2017-09-06T07:54:53.478Z,3.07
2017-09-06T07:57:21.568Z,2.50
2017-09-06T07:59:49.653Z,2.70
2017-09-06T08:02:17.737Z,2.93
2017-09-06T08:04:45.812Z,3.07
2017-09-06T08:07:13.911Z,2.40
2017-09-06T08:09:41.992Z,2.10
2017-09-06T08:12:10.115Z,2.63
2017-09-06T08:14:38.188Z,2.47
2017-09-06T08:17:06.285Z,3.73
2017-09-06T08:19:34.370Z,2.97
2017-09-06T08:22:02.523Z,2.87
2017-09-06T08:24:30.617Z,3.33
2017-09-06T08:26:58.708Z,5.70
2017-09-06T08:29:26.796Z,2.50
2017-09-06T08:31:54.875Z,2.40
2017-09-06T08:34:22.959Z,2.90
2017-09-06T08:36:51.039Z,2.43
2017-09-06T08:39:19.127Z,22.67
2017-09-06T08:41:47.196Z,3.10
2017-09-06T08:44:15.313Z,2.93
2017-09-06T08:46:43.392Z,3.37
2017-09-06T08:49:11.487Z,3.87
2017-09-06T08:51:39.633Z,3.87
2017-09-06T08:54:07.711Z,3.37
2017-09-06T08:56:35.800Z,3.50
2017-09-06T08:59:03.882Z,3.23
2017-09-06T09:01:31.976Z,4.03
2017-09-06T09:04:00.058Z,4.07
2017-09-06T09:06:28.150Z,4.03
2017-09-06T09:08:56.234Z,3.30
2017-09-06T09:11:24.336Z,4.20
2017-09-06T09:13:52.429Z,3.90
2017-09-06T09:16:20.537Z,3.87
2017-09-06T09:18:48.624Z,4.20
2017-09-06T09:21:16.709Z,3.93
2017-09-06T09:23:44.799Z,4.20
2017-09-06T09:26:12.889Z,3.90
2017-09-06T09:28:40.975Z,4.10
2017-09-06T09:31:09.053Z,3.90
2017-09-06T09:33:37.149Z,4.03
2017-09-06T09:36:05.236Z,3.30
2017-09-06T09:38:33.323Z,3.23
2017-09-06T09:41:01.424Z,3.30
2017-09-06T09:43:29.517Z,3.77
2017-09-06T09:45:57.604Z,4.30
2017-09-06T09:48:25.693Z,3.53
2017-09-06T09:50:53.775Z,3.40
2017-09-06T09:53:21.877Z,3.93
2017-09-06T09:55:49.968Z,3.60
2017-09-06T09:58:18.064Z,3.87
2017-09-06T10:00:46.151Z,4.10
2017-09-06T10:03:14.239Z,3.10
2017-09-06T10:05:42.328Z,3.20
2017-09-06T10:08:10.399Z,3.20
2017-09-06T10:10:38.514Z,2.20
2017-09-06T10:13:06.597Z,2.83
2017-09-06T10:15:34.691Z,2.63
2017-09-06T10:18:02.778Z,6.00
2017-09-06T10:20:30.876Z,3.77
2017-09-06T10:22:58.973Z,3.80
2017-09-06T10:25:27.069Z,2.60
2017-09-06T10:27:55.161Z,4.90
2017-09-06T10:30:23.251Z,1.90
2017-09-06T10:32:51.335Z,2.80
2017-09-06T10:35:19.435Z,3.00
2017-09-06T10:37:47.532Z,4.87
2017-09-06T10:40:15.649Z,2.87
2017-09-06T10:42:43.724Z,4.37
2017-09-06T10:45:11.809Z,3.13
2017-09-06T10:47:39.921Z,2.97
2017-09-06T10:50:08.013Z,3.80
2017-09-06T10:52:36.115Z,2.60
2017-09-06T10:55:04.193Z,3.80
2017-09-06T10:57:32.289Z,2.70
2017-09-06T11:00:00.372Z,3.13
2017-09-06T11:02:28.765Z,1.90
2017-09-06T11:04:56.858Z,1.93
2017-09-06T11:07:24.958Z,2.10
2017-09-06T11:09:53.058Z,1.40
2017-09-06T11:12:21.165Z,1.43
2017-09-06T11:14:50.228Z,1.57
2017-09-06T11:17:18.317Z,1.73
2017-09-06T11:19:46.400Z,1.40
2017-09-06T11:22:14.504Z,1.33
2017-09-06T11:24:42.592Z,1.40
2017-09-06T11:27:10.681Z,2.17
2017-09-06T11:29:38.772Z,1.53
2017-09-06T11:32:06.844Z,1.70
2017-09-06T11:34:34.929Z,2.00
2017-09-06T11:37:03.114Z,1.40
2017-09-06T11:39:31.211Z,1.40
2017-09-06T11:41:59.298Z,2.37
2017-09-06T11:44:27.429Z,1.93
2017-09-06T11:46:55.500Z,1.90
2017-09-06T11:49:23.593Z,1.97
2017-09-06T11:51:51.685Z,2.63
2017-09-06T11:54:19.803Z,2.33
2017-09-06T11:56:47.884Z,1.47
2017-09-06T11:59:15.989Z,2.40
2017-09-06T12:01:44.065Z,1.67
2017-09-06T12:04:12.211Z,2.60
2017-09-06T12:06:40.272Z,1.87
2017-09-06T12:09:08.390Z,1.83
2017-09-06T12:11:36.468Z,1.57
2017-09-06T12:14:04.555Z,2.23
2017-09-06T12:16:32.642Z,1.50
2017-09-06T12:19:00.764Z,1.50
2017-09-06T12:21:28.828Z,1.80
2017-09-06T12:23:56.912Z,1.80
2017-09-06T12:26:25.008Z,1.30
2017-09-06T12:28:53.095Z,2.33
2017-09-06T12:31:21.184Z,1.40
2017-09-06T12:33:49.261Z,1.93
2017-09-06T12:36:17.360Z,1.30
2017-09-06T12:38:45.448Z,1.33
2017-09-06T12:41:13.540Z,1.77
2017-09-06T12:43:41.623Z,1.40
2017-09-06T12:46:09.728Z,1.80
2017-09-06T12:48:37.807Z,1.53
2017-09-06T12:51:05.913Z,1.77
2017-09-06T12:53:34.001Z,1.43
2017-09-06T12:56:02.128Z,1.80
2017-09-06T12:58:30.195Z,1.30
2017-09-06T13:00:58.288Z,1.37
2017-09-06T13:03:26.399Z,1.30
2017-09-06T13:05:54.482Z,1.10
2017-09-06T13:08:22.583Z,1.23
2017-09-06T13:10:50.702Z,2.10
2017-09-06T13:13:18.784Z,1.50
2017-09-06T13:15:46.885Z,2.80
2017-09-06T13:18:14.985Z,1.63
2017-09-06T13:20:43.068Z,1.33
2017-09-06T13:23:11.173Z,2.23
2017-09-06T13:25:39.252Z,1.23
2017-09-06T13:28:07.464Z,1.33
2017-09-06T13:30:35.553Z,1.43
2017-09-06T13:33:03.660Z,1.20
2017-09-06T13:35:31.748Z,2.00
2017-09-06T13:37:59.846Z,1.33
2017-09-06T13:40:27.946Z,6.43
2017-09-06T13:42:56.473Z,1.87
2017-09-06T13:45:24.595Z,1.70
2017-09-06T13:47:52.715Z,2.40
2017-09-06T13:50:20.822Z,1.80
2017-09-06T13:52:48.913Z,5.03
2017-09-06T13:55:17.029Z,3.80
2017-09-06T13:57:45.109Z,2.37
2017-09-06T14:00:13.206Z,2.20
2017-09-06T14:02:41.295Z,4.80
2017-09-06T14:05:09.409Z,1.87
2017-09-06T14:07:37.493Z,2.03
2017-09-06T14:10:05.575Z,3.30
2017-09-06T14:12:33.660Z,1.50
2017-09-06T14:15:01.748Z,1.90
2017-09-06T14:17:29.828Z,3.30
2017-09-06T14:19:57.918Z,3.93
2017-09-06T14:22:26.000Z,1.77
2017-09-06T14:24:54.076Z,3.30
2017-09-06T14:27:22.204Z,4.30
2017-09-06T14:29:50.374Z,1.63
2017-09-06T14:32:18.460Z,5.73
2017-09-06T14:34:46.541Z,3.23
2017-09-06T14:37:14.627Z,3.00
2017-09-06T14:39:42.692Z,6.10
2017-09-06T14:42:10.780Z,2.40
2017-09-06T14:44:38.849Z,3.20
2017-09-06T14:47:06.953Z,3.10
2017-09-06T14:49:35.031Z,2.50
2017-09-06T14:52:03.128Z,2.60
2017-09-06T14:54:31.220Z,4.33
2017-09-06T14:56:59.304Z,3.80
2017-09-06T14:59:27.417Z,7.37
2017-09-06T15:01:55.501Z,2.50
2017-09-06T15:04:23.590Z,3.47
2017-09-06T15:06:51.660Z,5.90
2017-09-06T15:09:19.740Z,3.40
2017-09-06T15:11:47.816Z,3.30
2017-09-06T15:14:15.904Z,2.50
2017-09-06T15:16:43.991Z,4.30
2017-09-06T15:19:12.301Z,3.43
2017-09-06T15:21:40.380Z,2.40
2017-09-06T15:24:08.520Z,5.27
2017-09-06T15:26:36.596Z,6.40
2017-09-06T15:29:04.671Z,8.97
2017-09-06T15:31:32.748Z,3.27
2017-09-06T15:34:00.846Z,5.57
2017-09-06T15:36:28.927Z,4.87
2017-09-06T15:38:57.018Z,4.03
2017-09-06T15:41:25.092Z,4.57
2017-09-06T15:43:53.185Z,3.53
2017-09-06T15:46:21.265Z,3.80
2017-09-06T15:48:49.337Z,4.10
2017-09-06T15:51:17.420Z,3.20
2017-09-06T15:53:45.498Z,3.77
2017-09-06T15:56:13.592Z,2.47
2017-09-06T15:58:41.677Z,4.20
2017-09-06T16:01:09.769Z,5.23
2017-09-06T16:03:37.857Z,4.97
2017-09-06T16:06:05.934Z,3.00
2017-09-06T16:08:34.023Z,3.23
2017-09-06T16:11:02.104Z,3.97
2017-09-06T16:13:30.177Z,3.63
2017-09-06T16:15:58.262Z,2.87
2017-09-06T16:18:26.327Z,5.70
2017-09-06T16:20:54.434Z,3.20
2017-09-06T16:23:22.509Z,5.03
2017-09-06T16:25:50.617Z,6.90
2017-09-06T16:28:18.709Z,5.30
2017-09-06T16:30:46.780Z,5.73
2017-09-06T16:33:14.863Z,6.33
2017-09-06T16:35:42.933Z,5.17
2017-09-06T16:38:11.028Z,7.73
2017-09-06T16:40:39.101Z,5.77
2017-09-06T16:43:07.220Z,8.07
2017-09-06T16:45:35.285Z,8.37
2017-09-06T16:48:03.387Z,7.67
2017-09-06T16:50:31.470Z,8.10
2017-09-06T16:52:59.573Z,7.40
2017-09-06T16:55:28.608Z,7.70
2017-09-06T16:57:56.688Z,5.17
2017-09-06T17:00:24.764Z,5.30
2017-09-06T17:02:52.876Z,4.53
2017-09-06T17:05:20.948Z,4.33
2017-09-06T17:07:49.041Z,6.93
2017-09-06T17:10:17.118Z,7.10
2017-09-06T17:12:45.213Z,6.80
2017-09-06T17:15:13.293Z,3.33
2017-09-06T17:17:41.376Z,9.10
2017-09-06T17:20:09.480Z,7.17
2017-09-06T17:22:37.620Z,5.17
2017-09-06T17:25:05.727Z,5.07
2017-09-06T17:27:33.843Z,9.93
2017-09-06T17:30:01.939Z,7.43
2017-09-06T17:32:30.039Z,7.43
2017-09-06T17:34:58.141Z,10.20
2017-09-06T17:37:26.226Z,9.03
2017-09-06T17:39:54.337Z,7.10
2017-09-06T17:42:22.430Z,5.00
2017-09-06T17:44:50.525Z,8.00
2017-09-06T17:47:18.606Z,7.67
2017-09-06T17:49:46.719Z,4.70
2017-09-06T17:52:14.817Z,5.10
2017-09-06T17:54:42.919Z,6.63
2017-09-06T17:57:11.025Z,9.80
2017-09-06T17:59:39.128Z,5.53
2017-09-06T18:02:07.221Z,6.57
2017-09-06T18:04:35.310Z,5.73
2017-09-06T18:07:03.404Z,4.63
2017-09-06T18:09:31.512Z,7.80
2017-09-06T18:11:59.568Z,6.90
2017-09-06T18:14:28.053Z,6.43
2017-09-06T18:16:56.192Z,4.43
2017-09-06T18:19:24.324Z,3.27
2017-09-06T18:21:52.435Z,6.00
2017-09-06T18:24:20.524Z,7.00
2017-09-06T18:26:48.981Z,4.23
2017-09-06T18:29:17.073Z,4.70
2017-09-06T18:31:45.185Z,6.67
2017-09-06T18:34:13.335Z,6.63
2017-09-06T18:36:41.469Z,4.53
2017-09-06T18:39:09.566Z,4.10
2017-09-06T18:41:37.644Z,5.53
2017-09-06T18:44:05.742Z,4.70
2017-09-06T18:46:33.831Z,3.87
2017-09-06T18:49:01.913Z,6.80
2017-09-06T18:51:30.051Z,5.47
2017-09-06T18:53:58.145Z,5.33
2017-09-06T18:56:26.233Z,4.47
2017-09-06T18:58:54.360Z,6.30
2017-09-06T19:01:22.447Z,5.33
2017-09-06T19:03:50.536Z,5.23
2017-09-06T19:06:18.620Z,4.13
2017-09-06T19:08:46.781Z,5.80
2017-09-06T19:11:14.860Z,8.73
2017-09-06T19:13:43.007Z,3.43
2017-09-06T19:16:11.130Z,6.17
2017-09-06T19:18:39.222Z,4.90
2017-09-06T19:21:07.309Z,5.50
2017-09-06T19:23:35.396Z,6.43
2017-09-06T19:26:03.518Z,6.20
2017-09-06T19:28:31.601Z,8.37
2017-09-06T19:30:59.697Z,6.57
2017-09-06T19:33:27.789Z,8.23
2017-09-06T19:35:55.893Z,4.50
2017-09-06T19:38:23.981Z,6.20
2017-09-06T19:40:52.073Z,3.93
2017-09-06T19:43:20.155Z,5.13
2017-09-06T19:45:48.247Z,5.50
2017-09-06T19:48:16.386Z,4.23
2017-09-06T19:50:44.485Z,9.10
2017-09-06T19:53:12.577Z,6.80
2017-09-06T19:55:40.691Z,4.27
2017-09-06T19:58:08.830Z,5.93
2017-09-06T20:00:36.906Z,3.83
2017-09-06T20:03:05.898Z,3.97
2017-09-06T20:05:34.010Z,6.40
2017-09-06T20:08:02.161Z,5.50
2017-09-06T20:10:30.227Z,5.10
2017-09-06T20:12:58.402Z,7.90
2017-09-06T20:15:26.543Z,4.43
2017-09-06T20:17:54.610Z,4.00
2017-09-06T20:20:22.745Z,3.63
2017-09-06T20:22:50.857Z,5.37
2017-09-06T20:25:18.928Z,10.47
2017-09-06T20:27:47.000Z,4.20
2017-09-06T20:30:15.131Z,5.57
2017-09-06T20:32:43.209Z,7.23
2017-09-06T20:35:11.337Z,6.80
2017-09-06T20:37:39.407Z,3.77
2017-09-06T20:40:07.497Z,6.00
2017-09-06T20:42:35.578Z,7.33
2017-09-06T20:45:03.663Z,3.60
2017-09-06T20:47:31.728Z,4.80
2017-09-06T20:49:59.810Z,5.93
2017-09-06T20:52:27.892Z,5.97
2017-09-06T20:54:55.992Z,5.77
2017-09-06T20:57:24.066Z,5.00
2017-09-06T20:59:52.156Z,4.07
2017-09-06T21:02:20.227Z,6.30
2017-09-06T21:04:48.323Z,5.97
2017-09-06T21:07:16.401Z,4.90
2017-09-06T21:09:44.480Z,5.00
2017-09-06T21:12:12.565Z,3.87
2017-09-06T21:14:40.641Z,4.47
2017-09-06T21:17:08.733Z,5.63
2017-09-06T21:19:36.820Z,4.30
2017-09-06T21:22:04.920Z,4.40
2017-09-06T21:24:32.994Z,3.60
2017-09-06T21:27:01.083Z,4.07
2017-09-06T21:29:29.168Z,8.77
2017-09-06T21:31:57.245Z,3.80
2017-09-06T21:34:25.338Z,6.33
2017-09-06T21:36:53.481Z,9.07
2017-09-06T21:39:21.555Z,4.90
2017-09-06T21:41:49.653Z,2.90
2017-09-06T21:44:17.720Z,4.43
2017-09-06T21:46:45.812Z,5.77
2017-09-06T21:49:13.893Z,4.43
2017-09-06T21:51:41.970Z,6.23
2017-09-06T21:54:10.052Z,4.07
2017-09-06T21:56:38.123Z,4.97
2017-09-06T21:59:06.216Z,6.00
2017-09-06T22:01:34.284Z,7.87
2017-09-06T22:04:02.413Z,8.00
2017-09-06T22:06:30.502Z,4.27
2017-09-06T22:08:58.661Z,9.13
2017-09-06T22:11:26.741Z,5.30
2017-09-06T22:13:54.819Z,4.67
2017-09-06T22:16:22.892Z,10.53
2017-09-06T22:18:50.986Z,5.23
2017-09-06T22:21:19.070Z,4.43
2017-09-06T22:23:47.151Z,5.87
2017-09-06T22:26:15.238Z,7.40
2017-09-06T22:28:43.320Z,3.33
2017-09-06T23:13:59.903Z,6.83
2017-09-06T23:16:27.985Z,4.53
2017-09-06T23:18:56.059Z,5.80
2017-09-06T23:21:24.909Z,5.63
2017-09-06T23:23:52.980Z,4.10
2017-09-06T23:26:21.077Z,4.33
2017-09-06T23:28:49.151Z,5.40
2017-09-06T23:31:17.233Z,7.00
2017-09-06T23:33:45.301Z,4.17
2017-09-06T23:36:13.388Z,5.53
2017-09-06T23:38:42.233Z,5.40
2017-09-06T23:41:10.320Z,8.83
2017-09-06T23:43:38.432Z,3.50
2017-09-06T23:46:06.500Z,6.07
2017-09-06T23:48:35.349Z,5.43
2017-09-06T23:51:03.427Z,7.60
2017-09-06T23:53:31.514Z,4.83
2017-09-06T23:55:59.584Z,6.17
2017-09-06T23:58:27.657Z,3.53
